createdAt,value
2019-01-08T00:00:12.829Z,0
2019-01-08T00:01:11.837Z,0
2019-01-08T00:02:11.811Z,0
2019-01-08T00:03:12.950Z,0
2019-01-08T00:04:11.791Z,0
2019-01-08T00:05:11.535Z,0
2019-01-08T00:06:11.499Z,0
2019-01-08T00:07:11.771Z,0
2019-01-08T00:08:11.506Z,0
2019-01-08T00:09:11.722Z,0
2019-01-08T00:10:11.748Z,0
2019-01-08T00:11:11.473Z,0
2019-01-08T00:12:10.964Z,0
2019-01-08T00:13:11.428Z,0
2019-01-08T00:14:11.433Z,0
2019-01-08T00:15:11.444Z,0
2019-01-08T00:16:11.140Z,0
2019-01-08T00:17:11.391Z,0
2019-01-08T00:18:11.627Z,0
2019-01-08T00:19:11.126Z,0
2019-01-08T00:20:11.346Z,0
2019-01-08T00:21:11.596Z,0
2019-01-08T00:22:11.351Z,0
2019-01-08T00:23:11.074Z,0
2019-01-08T00:24:11.585Z,0
2019-01-08T00:25:11.043Z,0
2019-01-08T00:26:11.287Z,0
2019-01-08T00:27:11.305Z,0
2019-01-08T00:28:11.027Z,0
2019-01-08T00:29:11.287Z,0
2019-01-08T00:30:11.257Z,0
2019-01-08T00:31:11.520Z,0
2019-01-08T00:32:11.480Z,0
2019-01-08T00:33:14.059Z,0
2019-01-08T00:34:11.235Z,0
2019-01-08T00:35:11.226Z,0
2019-01-08T00:36:11.513Z,0
2019-01-08T00:37:11.202Z,0
2019-01-08T00:38:11.190Z,0
2019-01-08T00:39:11.436Z,0
2019-01-08T00:40:10.932Z,0
2019-01-08T00:41:11.224Z,0
2019-01-08T00:42:11.401Z,0
2019-01-08T00:43:11.168Z,0
2019-01-08T00:44:10.895Z,0
2019-01-08T00:45:10.865Z,0
2019-01-08T00:46:11.350Z,0
2019-01-08T00:47:11.429Z,0
2019-01-08T00:48:11.328Z,0
2019-01-08T00:49:11.374Z,0
2019-01-08T00:50:11.072Z,0
2019-01-08T00:51:11.305Z,0
2019-01-08T00:52:10.791Z,0
2019-01-08T00:53:11.162Z,0
2019-01-08T00:54:11.278Z,0
2019-01-08T00:55:11.037Z,0
2019-01-08T00:56:11.033Z,0
2019-01-08T00:57:11.235Z,0
2019-01-08T00:58:10.759Z,0
2019-01-08T00:59:11.220Z,0
2019-01-08T01:00:11.250Z,0
2019-01-08T01:01:10.952Z,0
2019-01-08T01:02:11.213Z,0
2019-01-08T01:03:10.685Z,0
2019-01-08T01:04:13.260Z,0
2019-01-08T01:05:11.206Z,0
2019-01-08T01:06:11.175Z,0
2019-01-08T01:07:10.646Z,0
2019-01-08T01:08:10.922Z,0
2019-01-08T01:09:10.936Z,0
2019-01-08T01:10:10.652Z,0
2019-01-08T01:11:11.134Z,0
2019-01-08T01:12:10.865Z,0
2019-01-08T01:13:11.089Z,0
2019-01-08T01:14:10.840Z,0
2019-01-08T01:15:10.837Z,0
2019-01-08T01:16:10.848Z,0
2019-01-08T01:17:10.801Z,0
2019-01-08T01:18:11.051Z,0
2019-01-08T01:19:10.794Z,0
2019-01-08T01:20:10.806Z,0
2019-01-08T01:21:10.762Z,0
2019-01-08T01:22:11.031Z,0
2019-01-08T01:23:10.751Z,0
2019-01-08T01:24:10.500Z,0
2019-01-08T01:25:10.496Z,0
2019-01-08T01:26:10.722Z,0
2019-01-08T01:27:10.968Z,0
2019-01-08T01:28:10.966Z,0
2019-01-08T01:29:10.459Z,0
2019-01-08T01:30:09.929Z,0
2019-01-08T01:31:10.678Z,0
2019-01-08T01:32:10.422Z,0
2019-01-08T01:33:10.669Z,0
2019-01-08T01:34:10.448Z,0
2019-01-08T01:35:10.889Z,0
2019-01-08T01:36:10.859Z,0
2019-01-08T01:37:10.937Z,0
2019-01-08T01:38:10.838Z,0
2019-01-08T01:39:10.881Z,0
2019-01-08T01:40:10.611Z,0
2019-01-08T01:41:10.339Z,0
2019-01-08T01:42:10.331Z,0
2019-01-08T01:43:10.604Z,0
2019-01-08T01:44:10.580Z,0
2019-01-08T01:45:10.787Z,0
2019-01-08T01:46:10.560Z,0
2019-01-08T01:47:10.780Z,0
2019-01-08T01:48:10.517Z,0
2019-01-08T01:49:11.050Z,0
2019-01-08T01:50:10.221Z,0
2019-01-08T01:51:09.735Z,0
2019-01-08T01:52:10.713Z,0
2019-01-08T01:53:10.471Z,0
2019-01-08T01:54:10.196Z,0
2019-01-08T01:55:10.685Z,0
2019-01-08T01:56:10.703Z,0
2019-01-08T01:57:10.657Z,0
2019-01-08T01:58:10.156Z,0
2019-01-08T01:59:17.820Z,0
2019-01-08T02:00:10.392Z,0
2019-01-08T02:01:10.152Z,0
2019-01-08T02:02:10.627Z,0
2019-01-08T02:03:10.359Z,0
2019-01-08T02:04:10.361Z,0
2019-01-08T02:05:10.391Z,0
2019-01-08T02:06:09.873Z,0
2019-01-08T02:07:10.080Z,0
2019-01-08T02:08:10.331Z,0
2019-01-08T02:09:10.589Z,0
2019-01-08T02:10:10.309Z,0
2019-01-08T02:11:10.048Z,0
2019-01-08T02:12:10.625Z,0
2019-01-08T02:13:09.575Z,0
2019-01-08T02:14:10.267Z,0
2019-01-08T02:15:10.505Z,0
2019-01-08T02:16:09.740Z,0
2019-01-08T02:17:10.501Z,0
2019-01-08T02:18:10.228Z,0
2019-01-08T02:19:10.468Z,0
2019-01-08T02:20:12.120Z,0
2019-01-08T02:21:10.203Z,0
2019-01-08T02:22:10.439Z,0
2019-01-08T02:23:10.475Z,0
2019-01-08T02:24:09.919Z,0
2019-01-08T02:25:10.172Z,0
2019-01-08T02:26:10.139Z,0
2019-01-08T02:27:10.128Z,0
2019-01-08T02:28:10.403Z,0
2019-01-08T02:29:16.433Z,0
2019-01-08T02:30:10.225Z,0
2019-01-08T02:31:10.154Z,0
2019-01-08T02:32:10.221Z,0
2019-01-08T02:33:10.100Z,0
2019-01-08T02:34:10.093Z,0
2019-01-08T02:35:11.735Z,0
2019-01-08T02:36:10.075Z,0
2019-01-08T02:37:10.063Z,0
2019-01-08T02:38:10.048Z,0
2019-01-08T02:39:10.125Z,0
2019-01-08T02:40:10.007Z,0
2019-01-08T02:41:10.290Z,0
2019-01-08T02:42:10.594Z,0
2019-01-08T02:43:09.729Z,0
2019-01-08T02:44:10.582Z,0
2019-01-08T02:45:10.261Z,0
2019-01-08T02:46:10.732Z,0
2019-01-08T02:47:09.700Z,0
2019-01-08T02:48:09.686Z,0
2019-01-08T02:49:09.933Z,0
2019-01-08T02:50:11.309Z,0
2019-01-08T02:51:09.658Z,0
2019-01-08T02:52:10.163Z,0
2019-01-08T02:53:10.171Z,0
2019-01-08T02:54:09.404Z,0
2019-01-08T02:55:09.633Z,0
2019-01-08T02:56:09.603Z,0
2019-01-08T02:57:09.845Z,0
2019-01-08T02:58:10.079Z,0
2019-01-08T02:59:09.926Z,0
2019-01-08T03:00:09.810Z,0
2019-01-08T03:01:09.581Z,0
2019-01-08T03:02:09.544Z,0
2019-01-08T03:03:10.035Z,0
2019-01-08T03:04:09.764Z,0
2019-01-08T03:05:09.559Z,0
2019-01-08T03:06:09.748Z,0
2019-01-08T03:07:09.994Z,0
2019-01-08T03:08:09.989Z,0
2019-01-08T03:09:09.796Z,0
2019-01-08T03:10:09.495Z,0
2019-01-08T03:11:09.456Z,0
2019-01-08T03:12:09.691Z,0
2019-01-08T03:13:09.695Z,0
2019-01-08T03:14:09.939Z,0
2019-01-08T03:15:09.929Z,0
2019-01-08T03:16:09.649Z,0
2019-01-08T03:17:09.913Z,0
2019-01-08T03:18:09.646Z,0
2019-01-08T03:19:09.865Z,0
2019-01-08T03:20:13.062Z,0
2019-01-08T03:21:09.867Z,0
2019-01-08T03:22:09.343Z,0
2019-01-08T03:23:09.405Z,0
2019-01-08T03:24:09.832Z,0
2019-01-08T03:25:09.831Z,0
2019-01-08T03:26:09.121Z,0
2019-01-08T03:27:09.554Z,0
2019-01-08T03:28:09.542Z,0
2019-01-08T03:29:09.277Z,0
2019-01-08T03:30:09.597Z,0
2019-01-08T03:31:09.906Z,0
2019-01-08T03:32:09.547Z,0
2019-01-08T03:33:09.264Z,0
2019-01-08T03:34:09.237Z,0
2019-01-08T03:35:09.072Z,0
2019-01-08T03:36:09.779Z,0
2019-01-08T03:37:09.455Z,0
2019-01-08T03:38:09.715Z,0
2019-01-08T03:39:09.196Z,0
2019-01-08T03:40:09.535Z,0
2019-01-08T03:41:09.688Z,0
2019-01-08T03:42:09.417Z,0
2019-01-08T03:43:09.407Z,0
2019-01-08T03:44:08.881Z,0
2019-01-08T03:45:09.019Z,0
2019-01-08T03:46:09.139Z,0
2019-01-08T03:47:08.642Z,0
2019-01-08T03:48:09.107Z,0
2019-01-08T03:49:08.892Z,0
2019-01-08T03:50:09.423Z,0
2019-01-08T03:51:12.801Z,0
2019-01-08T03:52:09.316Z,0
2019-01-08T03:53:09.040Z,0
2019-01-08T03:54:09.289Z,0
2019-01-08T03:55:09.176Z,0
2019-01-08T03:56:09.275Z,0
2019-01-08T03:57:09.013Z,0
2019-01-08T03:58:08.770Z,0
2019-01-08T03:59:09.496Z,0
2019-01-08T04:00:09.261Z,0
2019-01-08T04:01:08.801Z,0
2019-01-08T04:02:09.219Z,0
2019-01-08T04:03:09.225Z,0
2019-01-08T04:04:08.703Z,0
2019-01-08T04:05:09.200Z,0
2019-01-08T04:06:10.287Z,0
2019-01-08T04:07:09.176Z,0
2019-01-08T04:08:08.696Z,0
2019-01-08T04:09:09.159Z,0
2019-01-08T04:10:09.462Z,0
2019-01-08T04:11:09.125Z,0
2019-01-08T04:12:09.125Z,0
2019-01-08T04:13:08.640Z,0
2019-01-08T04:14:08.898Z,0
2019-01-08T04:15:08.843Z,0
2019-01-08T04:16:09.369Z,0
2019-01-08T04:17:09.309Z,0
2019-01-08T04:18:09.153Z,0
2019-01-08T04:19:09.047Z,0
2019-01-08T04:20:09.041Z,0
2019-01-08T04:21:14.302Z,0
2019-01-08T04:22:09.034Z,0
2019-01-08T04:23:09.030Z,0
2019-01-08T04:24:09.269Z,0
2019-01-08T04:25:08.786Z,0
2019-01-08T04:26:09.251Z,0
2019-01-08T04:27:08.736Z,0
2019-01-08T04:28:08.746Z,0
2019-01-08T04:29:08.987Z,0
2019-01-08T04:30:10.488Z,0
2019-01-08T04:31:08.709Z,0
2019-01-08T04:32:09.514Z,0
2019-01-08T04:33:08.935Z,0
2019-01-08T04:34:09.173Z,0
2019-01-08T04:35:08.916Z,0
2019-01-08T04:36:08.895Z,0
2019-01-08T04:37:08.687Z,0
2019-01-08T04:38:09.148Z,0
2019-01-08T04:39:08.878Z,0
2019-01-08T04:40:08.637Z,0
2019-01-08T04:41:08.879Z,0
2019-01-08T04:42:08.350Z,0
2019-01-08T04:43:09.136Z,0
2019-01-08T04:44:08.561Z,0
2019-01-08T04:45:08.823Z,0
2019-01-08T04:46:08.819Z,0
2019-01-08T04:47:08.548Z,0
2019-01-08T04:48:08.802Z,0
2019-01-08T04:49:09.023Z,0
2019-01-08T04:50:08.881Z,0
2019-01-08T04:51:08.774Z,0
2019-01-08T04:52:08.715Z,0
2019-01-08T04:53:08.490Z,0
2019-01-08T04:54:08.728Z,0
2019-01-08T04:55:08.991Z,0
2019-01-08T04:56:08.474Z,0
2019-01-08T04:57:08.466Z,0
2019-01-08T04:58:08.477Z,0
2019-01-08T04:59:08.705Z,0
2019-01-08T05:00:08.934Z,0
2019-01-08T05:01:08.667Z,0
2019-01-08T05:02:08.652Z,0
2019-01-08T05:03:08.638Z,0
2019-01-08T05:04:08.411Z,0
2019-01-08T05:05:08.893Z,0
2019-01-08T05:06:08.876Z,0
2019-01-08T05:07:08.413Z,0
2019-01-08T05:08:08.601Z,0
2019-01-08T05:09:08.851Z,0
2019-01-08T05:10:08.592Z,0
2019-01-08T05:11:08.813Z,0
2019-01-08T05:12:08.324Z,0
2019-01-08T05:13:08.808Z,0
2019-01-08T05:14:08.790Z,0
2019-01-08T05:15:08.796Z,0
2019-01-08T05:16:08.770Z,0
2019-01-08T05:17:08.267Z,0
2019-01-08T05:18:08.742Z,0
2019-01-08T05:19:08.598Z,0
2019-01-08T05:20:08.485Z,0
2019-01-08T05:21:08.211Z,0
2019-01-08T05:22:08.397Z,0
2019-01-08T05:23:08.703Z,0
2019-01-08T05:24:08.178Z,0
2019-01-08T05:25:08.702Z,0
2019-01-08T05:26:08.720Z,0
2019-01-08T05:27:08.676Z,0
2019-01-08T05:28:07.932Z,0
2019-01-08T05:29:08.665Z,0
2019-01-08T05:30:17.285Z,0
2019-01-08T05:31:08.142Z,0
2019-01-08T05:32:08.696Z,0
2019-01-08T05:33:08.613Z,0
2019-01-08T05:34:08.106Z,0
2019-01-08T05:35:08.347Z,0
2019-01-08T05:36:08.323Z,0
2019-01-08T05:37:08.069Z,0
2019-01-08T05:38:08.363Z,0
2019-01-08T05:39:08.542Z,0
2019-01-08T05:40:08.542Z,0
2019-01-08T05:41:08.288Z,0
2019-01-08T05:42:08.557Z,0
2019-01-08T05:43:08.034Z,0
2019-01-08T05:44:08.032Z,0
2019-01-08T05:45:08.500Z,0
2019-01-08T05:46:08.497Z,0
2019-01-08T05:47:08.001Z,0
2019-01-08T05:48:08.225Z,0
2019-01-08T05:49:08.475Z,0
2019-01-08T05:50:08.203Z,0
2019-01-08T05:51:08.438Z,0
2019-01-08T05:52:08.178Z,0
2019-01-08T05:53:10.330Z,0
2019-01-08T05:54:07.669Z,0
2019-01-08T05:55:08.408Z,0
2019-01-08T05:56:08.422Z,0
2019-01-08T05:57:08.124Z,0
2019-01-08T05:58:08.388Z,0
2019-01-08T05:59:08.121Z,0
2019-01-08T06:00:16.054Z,0
2019-01-08T06:01:08.422Z,0
2019-01-08T06:02:08.086Z,0
2019-01-08T06:03:08.094Z,0
2019-01-08T06:04:07.569Z,0
2019-01-08T06:05:08.154Z,0
2019-01-08T06:06:07.840Z,0
2019-01-08T06:07:08.064Z,0
2019-01-08T06:08:08.075Z,0
2019-01-08T06:09:07.820Z,0
2019-01-08T06:10:08.012Z,0
2019-01-08T06:11:07.774Z,0
2019-01-08T06:12:07.998Z,0
2019-01-08T06:13:07.752Z,0
2019-01-08T06:14:08.022Z,0
2019-01-08T06:15:08.227Z,0
2019-01-08T06:16:08.092Z,0
2019-01-08T06:17:07.976Z,0
2019-01-08T06:18:07.692Z,0
2019-01-08T06:19:07.694Z,0
2019-01-08T06:20:07.958Z,0
2019-01-08T06:21:07.936Z,0
2019-01-08T06:22:08.153Z,0
2019-01-08T06:23:10.894Z,0
2019-01-08T06:24:07.909Z,0
2019-01-08T06:25:10.173Z,0
2019-01-08T06:26:07.849Z,0
2019-01-08T06:27:08.104Z,0
2019-01-08T06:28:08.678Z,0
2019-01-08T06:29:07.843Z,0
2019-01-08T06:30:07.887Z,0
2019-01-08T06:31:07.853Z,0
2019-01-08T06:32:07.808Z,0
2019-01-08T06:33:07.787Z,0
2019-01-08T06:34:08.042Z,0
2019-01-08T06:35:07.787Z,0
2019-01-08T06:36:07.789Z,0
2019-01-08T06:37:07.778Z,0
2019-01-08T06:38:08.010Z,0
2019-01-08T06:39:08.068Z,0
2019-01-08T06:40:07.973Z,0
2019-01-08T06:41:07.484Z,0
2019-01-08T06:42:07.979Z,0
2019-01-08T06:43:07.726Z,0
2019-01-08T06:44:07.983Z,0
2019-01-08T06:45:07.692Z,0
2019-01-08T06:46:07.700Z,0
2019-01-08T06:47:07.681Z,0
2019-01-08T06:48:07.928Z,0
2019-01-08T06:49:07.903Z,0
2019-01-08T06:50:07.884Z,0
2019-01-08T06:51:07.888Z,0
2019-01-08T06:52:07.870Z,0
2019-01-08T06:53:07.650Z,0
2019-01-08T06:54:09.755Z,0
2019-01-08T06:55:07.611Z,0
2019-01-08T06:56:07.327Z,0
2019-01-08T06:57:07.139Z,0
2019-01-08T06:58:07.814Z,0
2019-01-08T06:59:07.306Z,0
2019-01-08T07:00:07.291Z,0
2019-01-08T07:01:07.788Z,0
2019-01-08T07:02:07.540Z,0
2019-01-08T07:03:07.761Z,0
2019-01-08T07:04:07.585Z,0
2019-01-08T07:05:07.496Z,0
2019-01-08T07:06:07.485Z,0
2019-01-08T07:07:07.722Z,0
2019-01-08T07:08:07.473Z,0
2019-01-08T07:09:07.538Z,0
2019-01-08T07:10:07.698Z,0
2019-01-08T07:11:07.480Z,0
2019-01-08T07:12:07.187Z,0
2019-01-08T07:13:07.192Z,0
2019-01-08T07:14:07.660Z,0
2019-01-08T07:15:07.406Z,0
2019-01-08T07:16:07.396Z,0
2019-01-08T07:17:07.168Z,0
2019-01-08T07:18:07.144Z,0
2019-01-08T07:19:07.367Z,0
2019-01-08T07:20:07.684Z,0
2019-01-08T07:21:07.591Z,0
2019-01-08T07:22:07.096Z,0
2019-01-08T07:23:07.112Z,0
2019-01-08T07:24:08.076Z,0
2019-01-08T07:25:07.188Z,0
2019-01-08T07:26:07.306Z,0
2019-01-08T07:27:07.293Z,0
2019-01-08T07:28:07.530Z,0
2019-01-08T07:29:07.527Z,5
2019-01-08T07:30:07.544Z,5
2019-01-08T07:31:07.522Z,5
2019-01-08T07:32:07.001Z,0
2019-01-08T07:33:07.482Z,0
2019-01-08T07:34:07.238Z,5
2019-01-08T07:35:07.319Z,5
2019-01-08T07:36:07.498Z,5
2019-01-08T07:37:07.209Z,5
2019-01-08T07:38:07.440Z,5
2019-01-08T07:39:06.994Z,5
2019-01-08T07:40:07.192Z,5
2019-01-08T07:41:07.517Z,5
2019-01-08T07:42:07.192Z,0
2019-01-08T07:43:07.523Z,0
2019-01-08T07:44:06.915Z,0
2019-01-08T07:45:07.374Z,0
2019-01-08T07:46:07.129Z,0
2019-01-08T07:47:07.385Z,0
2019-01-08T07:48:07.119Z,5
2019-01-08T07:49:07.092Z,0
2019-01-08T07:50:07.114Z,5
2019-01-08T07:51:07.109Z,0
2019-01-08T07:52:07.404Z,0
2019-01-08T07:53:07.062Z,5
2019-01-08T07:54:09.207Z,5
2019-01-08T07:55:07.135Z,5
2019-01-08T07:56:06.798Z,5
2019-01-08T07:57:06.774Z,5
2019-01-08T07:58:06.772Z,5
2019-01-08T07:59:07.012Z,5
2019-01-08T08:00:07.084Z,10
2019-01-08T08:01:06.996Z,10
2019-01-08T08:02:09.214Z,10
2019-01-08T08:03:06.961Z,10
2019-01-08T08:04:07.196Z,10
2019-01-08T08:05:07.030Z,10
2019-01-08T08:06:06.972Z,10
2019-01-08T08:07:06.692Z,10
2019-01-08T08:08:07.172Z,5
2019-01-08T08:09:09.131Z,5
2019-01-08T08:10:07.011Z,5
2019-01-08T08:11:06.644Z,5
2019-01-08T08:12:06.895Z,5
2019-01-08T08:13:06.868Z,5
2019-01-08T08:14:06.388Z,5
2019-01-08T08:15:06.902Z,5
2019-01-08T08:16:07.105Z,5
2019-01-08T08:17:07.107Z,10
2019-01-08T08:18:06.844Z,10
2019-01-08T08:19:08.088Z,15
2019-01-08T08:20:06.857Z,15
2019-01-08T08:21:06.589Z,10
2019-01-08T08:22:06.837Z,10
2019-01-08T08:23:06.817Z,10
2019-01-08T08:24:08.160Z,10
2019-01-08T08:25:07.045Z,10
2019-01-08T08:26:06.551Z,10
2019-01-08T08:27:06.358Z,10
2019-01-08T08:28:06.761Z,10
2019-01-08T08:29:06.761Z,10
2019-01-08T08:30:06.762Z,10
2019-01-08T08:31:08.363Z,10
2019-01-08T08:32:06.482Z,10
2019-01-08T08:33:06.747Z,10
2019-01-08T08:34:06.545Z,10
2019-01-08T08:35:15.317Z,10
2019-01-08T08:36:06.457Z,10
2019-01-08T08:37:07.032Z,10
2019-01-08T08:38:06.686Z,10
2019-01-08T08:39:06.667Z,15
2019-01-08T08:40:06.367Z,25
2019-01-08T08:41:06.674Z,30
2019-01-08T08:42:06.651Z,25
2019-01-08T08:43:06.911Z,20
2019-01-08T08:44:06.633Z,20
2019-01-08T08:45:08.509Z,20
2019-01-08T08:46:06.610Z,25
2019-01-08T08:47:06.619Z,30
2019-01-08T08:48:06.878Z,35
2019-01-08T08:49:06.965Z,45
2019-01-08T08:50:06.851Z,55
2019-01-08T08:51:06.597Z,60
2019-01-08T08:52:06.835Z,65
2019-01-08T08:53:06.564Z,70
2019-01-08T08:54:06.308Z,75
2019-01-08T08:55:10.915Z,80
2019-01-08T08:56:06.386Z,90
2019-01-08T08:57:06.044Z,95
2019-01-08T08:58:06.362Z,100
2019-01-08T08:59:06.509Z,100
2019-01-08T09:00:06.035Z,100
2019-01-08T09:01:14.227Z,100
2019-01-08T09:02:06.478Z,105
2019-01-08T09:03:06.502Z,105
2019-01-08T09:04:06.481Z,110
2019-01-08T09:05:06.498Z,110
2019-01-08T09:06:06.449Z,110
2019-01-08T09:07:06.536Z,110
2019-01-08T09:08:06.436Z,110
2019-01-08T09:09:06.695Z,115
2019-01-08T09:10:05.719Z,110
2019-01-08T09:11:06.170Z,110
2019-01-08T09:12:06.164Z,105
2019-01-08T09:13:06.864Z,100
2019-01-08T09:14:06.386Z,105
2019-01-08T09:15:06.127Z,105
2019-01-08T09:16:06.372Z,105
2019-01-08T09:17:05.866Z,105
2019-01-08T09:18:06.103Z,105
2019-01-08T09:19:06.355Z,115
2019-01-08T09:20:06.113Z,110
2019-01-08T09:21:06.572Z,110
2019-01-08T09:22:06.315Z,115
2019-01-08T09:23:06.558Z,145
2019-01-08T09:24:06.305Z,145
2019-01-08T09:25:08.447Z,150
2019-01-08T09:26:05.810Z,150
2019-01-08T09:27:06.055Z,120
2019-01-08T09:28:06.270Z,120
2019-01-08T09:29:06.507Z,120
2019-01-08T09:30:05.757Z,125
2019-01-08T09:31:05.755Z,155
2019-01-08T09:32:06.247Z,155
2019-01-08T09:33:06.475Z,160
2019-01-08T09:34:05.967Z,160
2019-01-08T09:35:06.479Z,160
2019-01-08T09:36:05.954Z,160
2019-01-08T09:37:06.439Z,160
2019-01-08T09:38:06.220Z,160
2019-01-08T09:39:06.187Z,160
2019-01-08T09:40:06.782Z,160
2019-01-08T09:41:06.163Z,160
2019-01-08T09:42:06.387Z,165
2019-01-08T09:43:06.136Z,160
2019-01-08T09:44:05.878Z,130
2019-01-08T09:45:05.642Z,130
2019-01-08T09:46:06.108Z,150
2019-01-08T09:47:05.855Z,170
2019-01-08T09:48:05.629Z,170
2019-01-08T09:49:06.368Z,170
2019-01-08T09:50:05.952Z,170
2019-01-08T09:51:06.078Z,170
2019-01-08T09:52:05.825Z,170
2019-01-08T09:53:05.820Z,170
2019-01-08T09:54:06.053Z,170
2019-01-08T09:55:07.801Z,155
2019-01-08T09:56:05.801Z,140
2019-01-08T09:57:06.125Z,150
2019-01-08T09:58:06.279Z,140
2019-01-08T09:59:05.766Z,175
2019-01-08T10:00:06.051Z,170
2019-01-08T10:01:06.254Z,170
2019-01-08T10:02:06.013Z,175
2019-01-08T10:03:05.753Z,180
2019-01-08T10:04:05.736Z,180
2019-01-08T10:05:05.758Z,170
2019-01-08T10:06:06.025Z,165
2019-01-08T10:07:05.958Z,135
2019-01-08T10:08:05.969Z,130
2019-01-08T10:09:05.974Z,130
2019-01-08T10:10:05.952Z,140
2019-01-08T10:11:07.445Z,130
2019-01-08T10:12:05.664Z,130
2019-01-08T10:13:05.658Z,130
2019-01-08T10:14:05.920Z,130
2019-01-08T10:15:05.945Z,135
2019-01-08T10:16:05.909Z,125
2019-01-08T10:17:05.902Z,125
2019-01-08T10:18:06.135Z,130
2019-01-08T10:19:06.126Z,140
2019-01-08T10:20:05.647Z,135
2019-01-08T10:21:05.623Z,180
2019-01-08T10:22:05.838Z,180
2019-01-08T10:23:12.365Z,175
2019-01-08T10:24:06.686Z,180
2019-01-08T10:25:06.068Z,180
2019-01-08T10:26:08.038Z,180
2019-01-08T10:27:05.561Z,180
2019-01-08T10:28:05.322Z,180
2019-01-08T10:29:06.035Z,180
2019-01-08T10:30:06.562Z,180
2019-01-08T10:31:05.769Z,175
2019-01-08T10:32:05.508Z,175
2019-01-08T10:33:05.536Z,175
2019-01-08T10:34:06.010Z,170
2019-01-08T10:35:06.791Z,165
2019-01-08T10:36:05.740Z,170
2019-01-08T10:37:05.726Z,175
2019-01-08T10:38:05.731Z,175
2019-01-08T10:39:05.718Z,180
2019-01-08T10:40:06.457Z,180
2019-01-08T10:41:05.501Z,175
2019-01-08T10:42:05.685Z,170
2019-01-08T10:43:05.917Z,170
2019-01-08T10:44:05.192Z,160
2019-01-08T10:45:05.444Z,125
2019-01-08T10:46:05.207Z,135
2019-01-08T10:47:05.925Z,135
2019-01-08T10:48:05.405Z,130
2019-01-08T10:49:05.403Z,130
2019-01-08T10:50:05.754Z,135
2019-01-08T10:51:05.876Z,170
2019-01-08T10:52:06.936Z,165
2019-01-08T10:53:05.362Z,160
2019-01-08T10:54:05.869Z,125
2019-01-08T10:55:05.951Z,135
2019-01-08T10:56:06.808Z,160
2019-01-08T10:57:05.612Z,145
2019-01-08T10:58:05.831Z,150
2019-01-08T10:59:12.209Z,140
2019-01-08T11:00:05.819Z,140
2019-01-08T11:01:05.576Z,160
2019-01-08T11:02:05.587Z,150
2019-01-08T11:03:05.557Z,190
2019-01-08T11:04:05.046Z,160
2019-01-08T11:05:05.801Z,170
2019-01-08T11:06:05.793Z,150
2019-01-08T11:07:05.525Z,160
2019-01-08T11:08:05.298Z,195
2019-01-08T11:09:05.755Z,165
2019-01-08T11:10:05.512Z,180
2019-01-08T11:11:05.549Z,185
2019-01-08T11:12:07.653Z,150
2019-01-08T11:13:05.740Z,185
2019-01-08T11:14:05.497Z,155
2019-01-08T11:15:05.719Z,190
2019-01-08T11:16:05.259Z,190
2019-01-08T11:17:05.470Z,160
2019-01-08T11:18:05.450Z,205
2019-01-08T11:19:05.447Z,200
2019-01-08T11:20:05.439Z,160
2019-01-08T11:21:05.488Z,180
2019-01-08T11:22:05.447Z,155
2019-01-08T11:23:05.454Z,150
2019-01-08T11:24:05.497Z,180
2019-01-08T11:25:05.172Z,155
2019-01-08T11:26:05.411Z,175
2019-01-08T11:27:06.193Z,190
2019-01-08T11:28:05.171Z,195
2019-01-08T11:29:05.642Z,200
2019-01-08T11:30:05.389Z,220
2019-01-08T11:31:05.364Z,205
2019-01-08T11:32:05.609Z,210
2019-01-08T11:33:05.118Z,200
2019-01-08T11:34:05.105Z,205
2019-01-08T11:35:05.347Z,205
2019-01-08T11:36:05.097Z,205
2019-01-08T11:37:05.136Z,195
2019-01-08T11:38:05.566Z,190
2019-01-08T11:39:05.094Z,180
2019-01-08T11:40:05.329Z,210
2019-01-08T11:41:05.551Z,175
2019-01-08T11:42:05.613Z,175
2019-01-08T11:43:05.314Z,170
2019-01-08T11:44:05.525Z,160
2019-01-08T11:45:05.049Z,165
2019-01-08T11:46:05.280Z,130
2019-01-08T11:47:05.513Z,110
2019-01-08T11:48:12.848Z,95
2019-01-08T11:49:05.513Z,90
2019-01-08T11:50:05.114Z,85
2019-01-08T11:51:05.501Z,80
2019-01-08T11:52:05.324Z,80
2019-01-08T11:53:05.505Z,80
2019-01-08T11:54:05.245Z,85
2019-01-08T11:55:05.234Z,85
2019-01-08T11:56:06.067Z,85
2019-01-08T11:57:11.694Z,90
2019-01-08T11:58:05.473Z,90
2019-01-08T11:59:05.438Z,90
2019-01-08T12:00:04.955Z,85
2019-01-08T12:01:05.515Z,85
2019-01-08T12:02:07.457Z,80
2019-01-08T12:03:05.211Z,75
2019-01-08T12:04:05.181Z,80
2019-01-08T12:05:04.942Z,90
2019-01-08T12:06:06.953Z,100
2019-01-08T12:07:05.179Z,100
2019-01-08T12:08:05.385Z,105
2019-01-08T12:09:05.411Z,110
2019-01-08T12:10:05.438Z,110
2019-01-08T12:11:05.395Z,105
2019-01-08T12:12:05.382Z,105
2019-01-08T12:13:05.410Z,115
2019-01-08T12:14:04.871Z,120
2019-01-08T12:15:05.086Z,125
2019-01-08T12:16:05.346Z,135
2019-01-08T12:17:04.818Z,140
2019-01-08T12:18:05.075Z,145
2019-01-08T12:19:05.080Z,145
2019-01-08T12:20:05.062Z,150
2019-01-08T12:21:05.330Z,150
2019-01-08T12:22:05.059Z,145
2019-01-08T12:23:04.801Z,140
2019-01-08T12:24:05.035Z,140
2019-01-08T12:25:05.276Z,140
2019-01-08T12:26:04.809Z,135
2019-01-08T12:27:05.036Z,135
2019-01-08T12:28:07.785Z,135
2019-01-08T12:29:05.243Z,130
2019-01-08T12:30:04.981Z,130
2019-01-08T12:31:04.998Z,130
2019-01-08T12:32:13.395Z,130
2019-01-08T12:33:05.235Z,130
2019-01-08T12:34:04.951Z,135
2019-01-08T12:35:04.997Z,140
2019-01-08T12:36:04.978Z,140
2019-01-08T12:37:04.764Z,145
2019-01-08T12:38:04.684Z,160
2019-01-08T12:39:04.695Z,165
2019-01-08T12:40:05.187Z,180
2019-01-08T12:41:04.904Z,160
2019-01-08T12:42:04.667Z,160
2019-01-08T12:43:04.951Z,175
2019-01-08T12:44:05.322Z,175
2019-01-08T12:45:04.928Z,160
2019-01-08T12:46:04.665Z,180
2019-01-08T12:47:04.886Z,145
2019-01-08T12:48:04.386Z,130
2019-01-08T12:49:05.098Z,115
2019-01-08T12:50:05.084Z,85
2019-01-08T12:51:04.623Z,85
2019-01-08T12:52:05.106Z,90
2019-01-08T12:53:04.842Z,105
2019-01-08T12:54:04.373Z,105
2019-01-08T12:55:04.930Z,90
2019-01-08T12:56:05.133Z,90
2019-01-08T12:57:04.830Z,95
2019-01-08T12:58:06.168Z,95
2019-01-08T12:59:04.803Z,95
2019-01-08T13:00:04.620Z,95
2019-01-08T13:01:04.807Z,95
2019-01-08T13:02:04.548Z,90
2019-01-08T13:03:04.780Z,80
2019-01-08T13:04:04.840Z,80
2019-01-08T13:05:04.754Z,95
2019-01-08T13:06:04.772Z,110
2019-01-08T13:07:04.989Z,90
2019-01-08T13:08:04.992Z,75
2019-01-08T13:09:04.833Z,60
2019-01-08T13:10:04.835Z,60
2019-01-08T13:11:04.963Z,55
2019-01-08T13:12:04.714Z,55
2019-01-08T13:13:04.692Z,55
2019-01-08T13:14:04.764Z,50
2019-01-08T13:15:05.060Z,50
2019-01-08T13:16:04.761Z,55
2019-01-08T13:17:13.733Z,55
2019-01-08T13:18:04.188Z,55
2019-01-08T13:19:04.647Z,60
2019-01-08T13:20:04.674Z,55
2019-01-08T13:21:04.182Z,50
2019-01-08T13:22:04.748Z,50
2019-01-08T13:23:04.641Z,55
2019-01-08T13:24:05.857Z,55
2019-01-08T13:25:05.047Z,50
2019-01-08T13:26:04.376Z,50
2019-01-08T13:27:04.856Z,50
2019-01-08T13:28:04.619Z,50
2019-01-08T13:29:06.729Z,50
2019-01-08T13:30:06.221Z,45
2019-01-08T13:31:04.571Z,40
2019-01-08T13:32:04.595Z,30
2019-01-08T13:33:04.416Z,30
2019-01-08T13:34:06.951Z,35
2019-01-08T13:35:05.008Z,35
2019-01-08T13:36:04.804Z,35
2019-01-08T13:37:04.381Z,35
2019-01-08T13:38:04.292Z,35
2019-01-08T13:39:04.523Z,35
2019-01-08T13:40:05.086Z,35
2019-01-08T13:41:05.829Z,30
2019-01-08T13:42:04.507Z,30
2019-01-08T13:43:04.017Z,35
2019-01-08T13:44:05.893Z,35
2019-01-08T13:45:04.700Z,35
2019-01-08T13:46:04.714Z,40
2019-01-08T13:47:04.689Z,40
2019-01-08T13:48:03.948Z,45
2019-01-08T13:49:04.688Z,50
2019-01-08T13:50:04.440Z,50
2019-01-08T13:51:04.676Z,55
2019-01-08T13:52:04.406Z,60
2019-01-08T13:53:04.430Z,65
2019-01-08T13:54:04.661Z,75
2019-01-08T13:55:05.958Z,80
2019-01-08T13:56:04.376Z,85
2019-01-08T13:57:04.111Z,85
2019-01-08T13:58:04.207Z,85
2019-01-08T13:59:04.364Z,80
2019-01-08T14:00:08.394Z,80
2019-01-08T14:01:04.352Z,80
2019-01-08T14:02:04.351Z,80
2019-01-08T14:03:04.592Z,80
2019-01-08T14:04:04.320Z,80
2019-01-08T14:05:04.578Z,75
2019-01-08T14:06:04.319Z,75
2019-01-08T14:07:04.573Z,70
2019-01-08T14:08:04.329Z,65
2019-01-08T14:09:04.302Z,65
2019-01-08T14:10:03.835Z,65
2019-01-08T14:11:05.914Z,65
2019-01-08T14:12:04.019Z,65
2019-01-08T14:13:04.031Z,65
2019-01-08T14:14:03.785Z,65
2019-01-08T14:15:04.305Z,65
2019-01-08T14:16:04.246Z,65
2019-01-08T14:17:03.730Z,60
2019-01-08T14:18:04.228Z,60
2019-01-08T14:19:04.012Z,55
2019-01-08T14:20:04.209Z,50
2019-01-08T14:21:03.694Z,50
2019-01-08T14:22:04.166Z,45
2019-01-08T14:23:04.432Z,45
2019-01-08T14:24:05.989Z,45
2019-01-08T14:25:03.915Z,40